sensor_id;sensor_type;location;lat;lon;timestamp;pressure;altitude;pressure_sealevel;temperature;humidity
45345;BME280;31078;48.304;11.896;2023-06-10T00:01:19;95887.59;;;17.78;65.54
45345;BME280;31078;48.304;11.896;2023-06-10T00:03:48;95885.97;;;17.73;65.61
45345;BME280;31078;48.304;11.896;2023-06-10T00:06:14;95884.00;;;17.74;65.61
45345;BME280;31078;48.304;11.896;2023-06-10T00:08:41;95884.38;;;17.72;65.73
45345;BME280;31078;48.304;11.896;2023-06-10T00:11:07;95889.03;;;17.68;65.77
45345;BME280;31078;48.304;11.896;2023-06-10T00:13:35;95885.06;;;17.66;66.17
45345;BME280;31078;48.304;11.896;2023-06-10T00:16:02;95880.31;;;17.63;66.43
45345;BME280;31078;48.304;11.896;2023-06-10T00:18:29;95876.38;;;17.64;67.00
45345;BME280;31078;48.304;11.896;2023-06-10T00:20:56;95878.72;;;17.62;67.00
45345;BME280;31078;48.304;11.896;2023-06-10T00:23:28;95882.66;;;17.61;66.82
45345;BME280;31078;48.304;11.896;2023-06-10T00:25:56;95880.31;;;17.63;67.05
45345;BME280;31078;48.304;11.896;2023-06-10T00:28:22;95883.81;;;17.60;66.98
45345;BME280;31078;48.304;11.896;2023-06-10T00:30:50;95888.56;;;17.63;67.08
45345;BME280;31078;48.304;11.896;2023-06-10T00:33:17;95881.06;;;17.60;66.90
45345;BME280;31078;48.304;11.896;2023-06-10T00:35:44;95884.22;;;17.62;67.56
45345;BME280;31078;48.304;11.896;2023-06-10T00:38:10;95877.09;;;17.57;67.92
45345;BME280;31078;48.304;11.896;2023-06-10T00:40:39;95870.78;;;17.57;67.65
45345;BME280;31078;48.304;11.896;2023-06-10T00:43:06;95871.91;;;17.52;67.77
45345;BME280;31078;48.304;11.896;2023-06-10T00:45:32;95876.97;;;17.46;68.10
45345;BME280;31078;48.304;11.896;2023-06-10T00:48:01;95879.31;;;17.44;68.57
45345;BME280;31078;48.304;11.896;2023-06-10T00:50:27;95869.44;;;17.43;69.14
45345;BME280;31078;48.304;11.896;2023-06-10T00:52:55;95872.19;;;17.43;69.74
45345;BME280;31078;48.304;11.896;2023-06-10T00:55:22;95873.41;;;17.46;69.50
45345;BME280;31078;48.304;11.896;2023-06-10T00:57:50;95869.09;;;17.45;69.48
45345;BME280;31078;48.304;11.896;2023-06-10T01:00:17;95875.72;;;17.40;69.74
45345;BME280;31078;48.304;11.896;2023-06-10T01:02:44;95871.41;;;17.43;69.71
45345;BME280;31078;48.304;11.896;2023-06-10T01:05:12;95872.19;;;17.43;69.70
45345;BME280;31078;48.304;11.896;2023-06-10T01:07:44;95872.19;;;17.43;70.39
45345;BME280;31078;48.304;11.896;2023-06-10T01:10:17;95872.19;;;17.43;69.91
45345;BME280;31078;48.304;11.896;2023-06-10T01:12:51;95872.19;;;17.43;70.23
45345;BME280;31078;48.304;11.896;2023-06-10T01:15:19;95879.19;;;17.37;70.01
45345;BME280;31078;48.304;11.896;2023-06-10T01:17:54;95879.97;;;17.34;69.97
45345;BME280;31078;48.304;11.896;2023-06-10T01:20:23;95868.09;;;17.30;69.95
45345;BME280;31078;48.304;11.896;2023-06-10T01:22:53;95876.34;;;17.30;70.79
45345;BME280;31078;48.304;11.896;2023-06-10T01:25:20;95884.22;;;17.28;70.94
45345;BME280;31078;48.304;11.896;2023-06-10T01:27:54;95882.97;;;17.26;71.30
45345;BME280;31078;48.304;11.896;2023-06-10T01:30:26;95881.78;;;17.23;71.30
45345;BME280;31078;48.304;11.896;2023-06-10T01:32:55;95888.47;;;17.26;71.42
45345;BME280;31078;48.304;11.896;2023-06-10T01:35:25;95886.13;;;17.24;71.85
45345;BME280;31078;48.304;11.896;2023-06-10T01:37:54;95886.13;;;17.24;72.43
45345;BME280;31078;48.304;11.896;2023-06-10T01:40:23;95885.25;;;17.20;72.14
45345;BME280;31078;48.304;11.896;2023-06-10T01:42:50;95883.25;;;17.17;72.36
45345;BME280;31078;48.304;11.896;2023-06-10T01:45:17;95883.69;;;17.19;73.11
45345;BME280;31078;48.304;11.896;2023-06-10T01:47:44;95879.75;;;17.20;73.25
45345;BME280;31078;48.304;11.896;2023-06-10T01:50:10;95881.34;;;17.21;73.19
45345;BME280;31078;48.304;11.896;2023-06-10T01:52:37;95884.09;;;17.21;73.60
45345;BME280;31078;48.304;11.896;2023-06-10T01:55:06;95879.75;;;17.20;73.23
45345;BME280;31078;48.304;11.896;2023-06-10T01:57:32;95877.66;;;17.10;73.09
45345;BME280;31078;48.304;11.896;2023-06-10T01:59:59;95878.06;;;17.12;73.24
45345;BME280;31078;48.304;11.896;2023-06-10T02:02:25;95881.97;;;17.11;73.33
45345;BME280;31078;48.304;11.896;2023-06-10T02:04:52;95888.25;;;17.08;73.12
45345;BME280;31078;48.304;11.896;2023-06-10T02:07:18;95883.06;;;17.03;73.07
45345;BME280;31078;48.304;11.896;2023-06-10T02:09:45;95886.44;;;16.92;73.02
45345;BME280;31078;48.304;11.896;2023-06-10T02:12:12;95885.91;;;16.83;73.01
45345;BME280;31078;48.304;11.896;2023-06-10T02:14:39;95890.06;;;16.74;73.20
45345;BME280;31078;48.304;11.896;2023-06-10T02:17:06;95882.00;;;16.61;73.73
45345;BME280;31078;48.304;11.896;2023-06-10T02:19:32;95882.19;;;16.49;73.96
45345;BME280;31078;48.304;11.896;2023-06-10T02:22:02;95889.53;;;16.41;74.37
45345;BME280;31078;48.304;11.896;2023-06-10T02:24:28;95885.50;;;16.35;74.81
45345;BME280;31078;48.304;11.896;2023-06-10T02:26:55;95890.56;;;16.33;75.04
45345;BME280;31078;48.304;11.896;2023-06-10T02:29:23;95890.84;;;16.28;75.38
45345;BME280;31078;48.304;11.896;2023-06-10T02:31:50;95891.16;;;16.23;75.97
45345;BME280;31078;48.304;11.896;2023-06-10T02:34:18;95889.16;;;16.20;76.47
45345;BME280;31078;48.304;11.896;2023-06-10T02:36:45;95886.41;;;16.20;76.88
45345;BME280;31078;48.304;11.896;2023-06-10T02:39:11;95887.56;;;16.19;76.83
45345;BME280;31078;48.304;11.896;2023-06-10T02:41:38;95892.19;;;16.15;77.26
45345;BME280;31078;48.304;11.896;2023-06-10T02:44:05;95888.88;;;16.06;77.15
45345;BME280;31078;48.304;11.896;2023-06-10T02:46:32;95897.50;;;16.04;77.37
45345;BME280;31078;48.304;11.896;2023-06-10T02:48:59;95893.53;;;16.02;77.75
45345;BME280;31078;48.304;11.896;2023-06-10T02:51:26;95895.44;;;15.98;78.11
45345;BME280;31078;48.304;11.896;2023-06-10T02:53:53;95900.06;;;15.94;78.00
45345;BME280;31078;48.304;11.896;2023-06-10T02:56:20;95903.50;;;15.90;78.27
45345;BME280;31078;48.304;11.896;2023-06-10T02:58:47;95899.56;;;15.88;79.13
45345;BME280;31078;48.304;11.896;2023-06-10T03:01:14;95899.47;;;15.84;78.89
45345;BME280;31078;48.304;11.896;2023-06-10T03:03:42;95900.94;;;15.78;79.07
45345;BME280;31078;48.304;11.896;2023-06-10T03:06:10;95903.19;;;15.73;79.17
45345;BME280;31078;48.304;11.896;2023-06-10T03:08:37;95898.41;;;15.70;79.67
45345;BME280;31078;48.304;11.896;2023-06-10T03:11:04;95895.16;;;15.64;79.81
45345;BME280;31078;48.304;11.896;2023-06-10T03:13:30;95907.53;;;15.58;80.16
45345;BME280;31078;48.304;11.896;2023-06-10T03:15:57;95903.63;;;15.59;80.58
45345;BME280;31078;48.304;11.896;2023-06-10T03:18:27;95900.47;;;15.57;80.74
45345;BME280;31078;48.304;11.896;2023-06-10T03:20:55;95908.25;;;15.55;80.87
45345;BME280;31078;48.304;11.896;2023-06-10T03:23:22;95913.31;;;15.53;80.86
45345;BME280;31078;48.304;11.896;2023-06-10T03:25:49;95914.13;;;15.53;81.05
45345;BME280;31078;48.304;11.896;2023-06-10T03:28:15;95923.94;;;15.54;80.93
45345;BME280;31078;48.304;11.896;2023-06-10T03:30:42;95918.44;;;15.54;81.21
45345;BME280;31078;48.304;11.896;2023-06-10T03:33:08;95915.34;;;15.56;81.48
45345;BME280;31078;48.304;11.896;2023-06-10T03:35:34;95924.38;;;15.56;81.28
45345;BME280;31078;48.304;11.896;2023-06-10T03:38:02;95933.41;;;15.57;81.48
45345;BME280;31078;48.304;11.896;2023-06-10T03:40:29;95930.22;;;15.55;81.65
45345;BME280;31078;48.304;11.896;2023-06-10T03:42:57;95929.09;;;15.56;81.56
45345;BME280;31078;48.304;11.896;2023-06-10T03:45:23;95926.75;;;15.58;81.62
45345;BME280;31078;48.304;11.896;2023-06-10T03:47:50;95925.19;;;15.57;81.50
45345;BME280;31078;48.304;11.896;2023-06-10T03:50:17;95932.66;;;15.60;81.58
45345;BME280;31078;48.304;11.896;2023-06-10T03:52:44;95927.91;;;15.57;81.72
45345;BME280;31078;48.304;11.896;2023-06-10T03:55:12;95928.63;;;15.54;81.73
45345;BME280;31078;48.304;11.896;2023-06-10T03:57:38;95939.59;;;15.54;81.61
45345;BME280;31078;48.304;11.896;2023-06-10T04:00:06;95931.38;;;15.54;82.22
45345;BME280;31078;48.304;11.896;2023-06-10T04:02:36;95940.06;;;15.56;81.93
45345;BME280;31078;48.304;11.896;2023-06-10T04:05:03;95941.19;;;15.55;81.93
45345;BME280;31078;48.304;11.896;2023-06-10T04:07:30;95942.81;;;15.56;82.32
45345;BME280;31078;48.304;11.896;2023-06-10T04:09:57;95940.47;;;15.58;82.46
45345;BME280;31078;48.304;11.896;2023-06-10T04:12:25;95945.97;;;15.58;82.31
45345;BME280;31078;48.304;11.896;2023-06-10T04:14:51;95944.38;;;15.57;82.26
45345;BME280;31078;48.304;11.896;2023-06-10T04:17:18;95948.28;;;15.56;82.16
45345;BME280;31078;48.304;11.896;2023-06-10T04:19:45;95945.38;;;15.49;82.20
45345;BME280;31078;48.304;11.896;2023-06-10T04:22:11;95951.22;;;15.47;81.92
45345;BME280;31078;48.304;11.896;2023-06-10T04:24:38;95945.75;;;15.47;81.80
45345;BME280;31078;48.304;11.896;2023-06-10T04:27:05;95950.44;;;15.47;82.19
45345;BME280;31078;48.304;11.896;2023-06-10T04:29:33;95937.88;;;15.46;82.57
45345;BME280;31078;48.304;11.896;2023-06-10T04:32:00;95953.69;;;15.52;82.65
45345;BME280;31078;48.304;11.896;2023-06-10T04:34:27;95948.28;;;15.56;83.06
45345;BME280;31078;48.304;11.896;2023-06-10T04:36:53;95954.63;;;15.60;83.32
45345;BME280;31078;48.304;11.896;2023-06-10T04:39:20;95950.28;;;15.59;83.58
45345;BME280;31078;48.304;11.896;2023-06-10T04:41:46;95951.19;;;15.63;83.59
45345;BME280;31078;48.304;11.896;2023-06-10T04:44:13;95947.00;;;15.69;83.73
45345;BME280;31078;48.304;11.896;2023-06-10T04:46:41;95951.50;;;15.77;84.51
45345;BME280;31078;48.304;11.896;2023-06-10T04:49:07;95960.66;;;15.85;84.53
45345;BME280;31078;48.304;11.896;2023-06-10T04:51:34;95960.47;;;15.94;84.34
45345;BME280;31078;48.304;11.896;2023-06-10T04:54:01;95961.75;;;16.00;84.32
45345;BME280;31078;48.304;11.896;2023-06-10T04:56:28;95971.00;;;15.91;83.52
45345;BME280;31078;48.304;11.896;2023-06-10T04:58:55;95972.44;;;15.85;83.75
45345;BME280;31078;48.304;11.896;2023-06-10T05:01:21;95967.38;;;16.07;83.36
45345;BME280;31078;48.304;11.896;2023-06-10T05:03:49;95969.69;;;16.24;83.45
45345;BME280;31078;48.304;11.896;2023-06-10T05:06:16;95964.75;;;16.33;83.14
45345;BME280;31078;48.304;11.896;2023-06-10T05:08:42;95969.63;;;16.43;83.33
45345;BME280;31078;48.304;11.896;2023-06-10T05:11:09;95972.81;;;16.46;82.89
45345;BME280;31078;48.304;11.896;2023-06-10T05:13:35;95968.50;;;16.44;82.36
45345;BME280;31078;48.304;11.896;2023-06-10T05:16:02;95971.94;;;16.61;82.15
45345;BME280;31078;48.304;11.896;2023-06-10T05:18:28;95969.91;;;16.58;81.72
45345;BME280;31078;48.304;11.896;2023-06-10T05:20:57;95969.19;;;16.61;81.12
45345;BME280;31078;48.304;11.896;2023-06-10T05:23:24;95980.00;;;16.73;81.45
45345;BME280;31078;48.304;11.896;2023-06-10T05:25:50;95973.47;;;16.81;82.32
45345;BME280;31078;48.304;11.896;2023-06-10T05:28:17;95975.94;;;16.86;82.15
45345;BME280;31078;48.304;11.896;2023-06-10T05:30:43;95972.88;;;16.91;81.97
45345;BME280;31078;48.304;11.896;2023-06-10T05:33:10;95977.63;;;16.94;81.65
45345;BME280;31078;48.304;11.896;2023-06-10T05:35:36;95983.97;;;16.99;81.39
45345;BME280;31078;48.304;11.896;2023-06-10T05:38:04;95984.03;;;17.02;81.14
45345;BME280;31078;48.304;11.896;2023-06-10T05:40:30;95985.25;;;17.05;81.17
45345;BME280;31078;48.304;11.896;2023-06-10T05:42:57;95990.38;;;17.06;80.61
45345;BME280;31078;48.304;11.896;2023-06-10T05:45:23;95984.09;;;17.06;80.78
45345;BME280;31078;48.304;11.896;2023-06-10T05:47:50;95984.16;;;17.09;80.62
45345;BME280;31078;48.304;11.896;2023-06-10T05:50:16;95977.47;;;17.10;80.24
45345;BME280;31078;48.304;11.896;2023-06-10T05:52:43;95985.78;;;17.14;80.34
45345;BME280;31078;48.304;11.896;2023-06-10T05:55:11;95982.28;;;17.17;80.39
45345;BME280;31078;48.304;11.896;2023-06-10T05:57:37;95978.75;;;17.16;80.23
45345;BME280;31078;48.304;11.896;2023-06-10T06:00:05;95972.97;;;16.99;79.49
45345;BME280;31078;48.304;11.896;2023-06-10T06:02:32;95978.56;;;17.06;79.13
45345;BME280;31078;48.304;11.896;2023-06-10T06:04:59;95972.91;;;16.95;79.28
45345;BME280;31078;48.304;11.896;2023-06-10T06:07:26;95969.75;;;16.93;79.74
45345;BME280;31078;48.304;11.896;2023-06-10T06:09:52;95974.06;;;16.94;80.09
45345;BME280;31078;48.304;11.896;2023-06-10T06:12:20;95971.59;;;17.12;80.82
45345;BME280;31078;48.304;11.896;2023-06-10T06:14:47;95973.09;;;17.32;80.30
45345;BME280;31078;48.304;11.896;2023-06-10T06:17:14;95977.63;;;17.47;79.66
45345;BME280;31078;48.304;11.896;2023-06-10T06:19:40;95978.91;;;17.54;79.09
45345;BME280;31078;48.304;11.896;2023-06-10T06:22:07;95973.81;;;17.56;78.41
45345;BME280;31078;48.304;11.896;2023-06-10T06:24:33;95976.16;;;17.27;78.70
45345;BME280;31078;48.304;11.896;2023-06-10T06:27:00;95977.44;;;17.33;79.88
45345;BME280;31078;48.304;11.896;2023-06-10T06:29:28;95974.94;;;17.25;79.93
45345;BME280;31078;48.304;11.896;2023-06-10T06:31:55;95974.38;;;17.38;79.79
45345;BME280;31078;48.304;11.896;2023-06-10T06:34:21;95981.78;;;17.34;80.47
45345;BME280;31078;48.304;11.896;2023-06-10T06:36:48;95986.28;;;17.46;79.48
45345;BME280;31078;48.304;11.896;2023-06-10T06:39:14;95990.53;;;17.43;80.67
45345;BME280;31078;48.304;11.896;2023-06-10T06:41:41;95992.56;;;17.46;79.60
45345;BME280;31078;48.304;11.896;2023-06-10T06:44:07;95988.94;;;17.69;79.48
45345;BME280;31078;48.304;11.896;2023-06-10T06:46:35;95989.56;;;17.85;78.68
45345;BME280;31078;48.304;11.896;2023-06-10T06:49:02;95985.31;;;17.88;77.39
45345;BME280;31078;48.304;11.896;2023-06-10T06:51:28;95984.91;;;18.19;77.41
45345;BME280;31078;48.304;11.896;2023-06-10T06:53:55;95983.69;;;18.17;76.51
45345;BME280;31078;48.304;11.896;2023-06-10T06:56:24;95981.19;;;18.38;76.63
45345;BME280;31078;48.304;11.896;2023-06-10T06:58:52;95979.34;;;18.53;76.22
45345;BME280;31078;48.304;11.896;2023-06-10T07:01:18;95987.88;;;18.78;75.97
45345;BME280;31078;48.304;11.896;2023-06-10T07:03:47;95984.03;;;18.86;74.90
45345;BME280;31078;48.304;11.896;2023-06-10T07:06:13;95988.06;;;18.99;74.90
45345;BME280;31078;48.304;11.896;2023-06-10T07:08:40;95992.94;;;19.13;73.21
45345;BME280;31078;48.304;11.896;2023-06-10T07:11:06;95987.84;;;19.19;72.41
45345;BME280;31078;48.304;11.896;2023-06-10T07:13:33;95991.84;;;19.25;71.42
45345;BME280;31078;48.304;11.896;2023-06-10T07:15:59;95987.59;;;19.42;71.66
45345;BME280;31078;48.304;11.896;2023-06-10T07:18:26;95995.59;;;19.54;71.86
45345;BME280;31078;48.304;11.896;2023-06-10T07:20:53;95990.88;;;19.54;71.57
45345;BME280;31078;48.304;11.896;2023-06-10T07:23:20;95992.22;;;19.75;71.39
45345;BME280;31078;48.304;11.896;2023-06-10T07:25:46;95997.75;;;19.82;68.97
45345;BME280;31078;48.304;11.896;2023-06-10T07:28:13;95993.44;;;19.88;69.46
45345;BME280;31078;48.304;11.896;2023-06-10T07:30:40;95992.72;;;19.98;70.22
45345;BME280;31078;48.304;11.896;2023-06-10T07:33:06;95987.59;;;20.00;70.10
45345;BME280;31078;48.304;11.896;2023-06-10T07:35:33;95988.00;;;20.10;68.51
45345;BME280;31078;48.304;11.896;2023-06-10T07:38:01;96000.69;;;20.18;67.92
45345;BME280;31078;48.304;11.896;2023-06-10T07:40:27;96003.09;;;20.30;67.04
45345;BME280;31078;48.304;11.896;2023-06-10T07:42:55;96005.09;;;20.26;66.51
45345;BME280;31078;48.304;11.896;2023-06-10T07:45:21;96007.06;;;20.32;65.85
45345;BME280;31078;48.304;11.896;2023-06-10T07:47:48;95998.41;;;20.38;65.80
45345;BME280;31078;48.304;11.896;2023-06-10T07:50:14;96003.94;;;20.38;64.95
45345;BME280;31078;48.304;11.896;2023-06-10T07:52:41;95998.81;;;20.36;64.62
45345;BME280;31078;48.304;11.896;2023-06-10T07:55:09;96009.06;;;20.39;65.44
45345;BME280;31078;48.304;11.896;2023-06-10T07:57:35;96013.47;;;20.51;64.66
45345;BME280;31078;48.304;11.896;2023-06-10T08:00:04;96011.88;;;20.46;62.51
45345;BME280;31078;48.304;11.896;2023-06-10T08:02:31;96009.59;;;20.77;63.32
45345;BME280;31078;48.304;11.896;2023-06-10T08:04:58;96004.06;;;20.77;61.64
45345;BME280;31078;48.304;11.896;2023-06-10T08:07:24;96011.16;;;20.71;60.98
45345;BME280;31078;48.304;11.896;2023-06-10T08:09:51;96005.28;;;20.83;61.56
45345;BME280;31078;48.304;11.896;2023-06-10T08:12:18;96003.69;;;20.89;61.34
45345;BME280;31078;48.304;11.896;2023-06-10T08:14:45;96001.72;;;21.22;63.31
45345;BME280;31078;48.304;11.896;2023-06-10T08:17:12;96008.91;;;21.30;61.84
45345;BME280;31078;48.304;11.896;2023-06-10T08:19:38;95997.78;;;21.51;62.42
45345;BME280;31078;48.304;11.896;2023-06-10T08:22:05;96002.91;;;21.60;61.82
45345;BME280;31078;48.304;11.896;2023-06-10T08:24:31;96008.09;;;21.51;61.06
45345;BME280;31078;48.304;11.896;2023-06-10T08:26:58;96011.66;;;21.30;61.30
45345;BME280;31078;48.304;11.896;2023-06-10T08:29:25;96012.03;;;21.25;60.93
45345;BME280;31078;48.304;11.896;2023-06-10T08:31:52;96012.84;;;21.36;61.81
45345;BME280;31078;48.304;11.896;2023-06-10T08:34:18;96012.00;;;21.71;60.78
45345;BME280;31078;48.304;11.896;2023-06-10T08:36:45;96012.69;;;22.07;59.22
45345;BME280;31078;48.304;11.896;2023-06-10T08:39:12;96009.03;;;22.46;60.54
45345;BME280;31078;48.304;11.896;2023-06-10T08:41:43;96008.47;;;22.73;58.00
45345;BME280;31078;48.304;11.896;2023-06-10T08:44:14;96004.41;;;22.91;55.30
45345;BME280;31078;48.304;11.896;2023-06-10T08:46:45;96005.97;;;22.96;54.14
45345;BME280;31078;48.304;11.896;2023-06-10T08:49:17;96001.91;;;23.11;52.68
45345;BME280;31078;48.304;11.896;2023-06-10T08:51:48;96003.44;;;23.20;52.44
45345;BME280;31078;48.304;11.896;2023-06-10T08:54:21;96007.59;;;23.42;53.22
45345;BME280;31078;48.304;11.896;2023-06-10T08:56:53;96004.03;;;23.45;51.33
45345;BME280;31078;48.304;11.896;2023-06-10T08:59:21;96010.34;;;23.49;51.21
45345;BME280;31078;48.304;11.896;2023-06-10T09:01:50;96007.44;;;23.11;52.77
45345;BME280;31078;48.304;11.896;2023-06-10T09:04:17;96007.22;;;22.81;53.67
45345;BME280;31078;48.304;11.896;2023-06-10T09:06:44;96003.25;;;22.89;54.45
45345;BME280;31078;48.304;11.896;2023-06-10T09:09:12;96009.34;;;22.62;57.35
45345;BME280;31078;48.304;11.896;2023-06-10T09:11:40;96006.31;;;22.35;55.32
45345;BME280;31078;48.304;11.896;2023-06-10T09:14:08;96007.88;;;22.40;56.54
45345;BME280;31078;48.304;11.896;2023-06-10T09:16:35;96008.66;;;22.37;56.57
45345;BME280;31078;48.304;11.896;2023-06-10T09:19:03;96011.06;;;22.28;56.72
45345;BME280;31078;48.304;11.896;2023-06-10T09:21:33;96007.13;;;22.22;57.58
45345;BME280;31078;48.304;11.896;2023-06-10T09:24:00;96004.38;;;22.07;57.93
45345;BME280;31078;48.304;11.896;2023-06-10T09:26:28;96000.91;;;21.75;56.72
45345;BME280;31078;48.304;11.896;2023-06-10T09:29:02;95998.53;;;21.77;56.78
45345;BME280;31078;48.304;11.896;2023-06-10T09:31:29;95999.31;;;21.81;57.23
45345;BME280;31078;48.304;11.896;2023-06-10T09:34:06;95996.88;;;21.97;56.71
45345;BME280;31078;48.304;11.896;2023-06-10T09:36:33;96005.56;;;22.06;56.32
45345;BME280;31078;48.304;11.896;2023-06-10T09:38:59;96007.16;;;22.07;57.28
45345;BME280;31078;48.304;11.896;2023-06-10T09:41:32;95996.78;;;22.40;58.30
45345;BME280;31078;48.304;11.896;2023-06-10T09:43:58;96005.34;;;22.63;56.00
45345;BME280;31078;48.304;11.896;2023-06-10T09:46:30;96006.84;;;22.79;54.87
45345;BME280;31078;48.304;11.896;2023-06-10T09:48:58;96002.44;;;22.85;53.58
45345;BME280;31078;48.304;11.896;2023-06-10T09:51:26;96002.75;;;23.01;53.86
45345;BME280;31078;48.304;11.896;2023-06-10T09:53:53;96001.44;;;23.24;54.73
45345;BME280;31078;48.304;11.896;2023-06-10T09:56:20;95999.78;;;23.30;52.79
45345;BME280;31078;48.304;11.896;2023-06-10T09:58:49;96001.59;;;23.51;52.77
45345;BME280;31078;48.304;11.896;2023-06-10T10:01:19;95999.94;;;23.08;51.95
45345;BME280;31078;48.304;11.896;2023-06-10T10:03:46;95999.22;;;23.49;52.33
45345;BME280;31078;48.304;11.896;2023-06-10T10:06:15;96004.84;;;23.38;52.41
45345;BME280;31078;48.304;11.896;2023-06-10T10:08:43;96008.88;;;23.34;51.29
45345;BME280;31078;48.304;11.896;2023-06-10T10:11:10;96009.78;;;23.20;52.65
45345;BME280;31078;48.304;11.896;2023-06-10T10:13:37;96003.19;;;22.96;52.42
45345;BME280;31078;48.304;11.896;2023-06-10T10:16:07;96008.81;;;22.89;53.81
45345;BME280;31078;48.304;11.896;2023-06-10T10:18:39;96006.81;;;22.93;52.82
45345;BME280;31078;48.304;11.896;2023-06-10T10:21:11;96004.41;;;22.95;52.56
45345;BME280;31078;48.304;11.896;2023-06-10T10:23:41;96002.38;;;23.03;52.87
45345;BME280;31078;48.304;11.896;2023-06-10T10:26:12;95994.34;;;23.15;53.66
45345;BME280;31078;48.304;11.896;2023-06-10T10:28:43;96006.06;;;23.37;53.78
45345;BME280;31078;48.304;11.896;2023-06-10T10:31:15;96006.50;;;23.32;54.09
45345;BME280;31078;48.304;11.896;2023-06-10T10:33:51;95998.72;;;23.61;53.98
45345;BME280;31078;48.304;11.896;2023-06-10T10:36:19;96005.41;;;23.67;53.55
45345;BME280;31078;48.304;11.896;2023-06-10T10:38:47;96000.19;;;23.77;52.52
45345;BME280;31078;48.304;11.896;2023-06-10T10:41:15;96002.06;;;23.87;52.87
45345;BME280;31078;48.304;11.896;2023-06-10T10:43:44;95994.53;;;23.84;51.92
45345;BME280;31078;48.304;11.896;2023-06-10T10:46:13;95994.97;;;23.79;51.89
45345;BME280;31078;48.304;11.896;2023-06-10T10:48:40;96000.53;;;23.79;53.55
45345;BME280;31078;48.304;11.896;2023-06-10T10:51:07;95990.72;;;23.71;52.74
45345;BME280;31078;48.304;11.896;2023-06-10T10:53:34;95998.56;;;23.34;51.03
45345;BME280;31078;48.304;11.896;2023-06-10T10:56:05;95997.78;;;23.34;52.62
45345;BME280;31078;48.304;11.896;2023-06-10T10:58:34;95993.13;;;23.16;53.06
45345;BME280;31078;48.304;11.896;2023-06-10T11:01:10;95993.91;;;23.17;53.38
45345;BME280;31078;48.304;11.896;2023-06-10T11:03:42;95990.75;;;23.18;53.55
45345;BME280;31078;48.304;11.896;2023-06-10T11:06:12;95986.38;;;23.17;53.83
45345;BME280;31078;48.304;11.896;2023-06-10T11:08:46;95986.69;;;23.30;53.64
45345;BME280;31078;48.304;11.896;2023-06-10T11:11:21;95982.81;;;23.62;53.63
45345;BME280;31078;48.304;11.896;2023-06-10T11:14:08;95978.25;;;23.86;53.29
45345;BME280;31078;48.304;11.896;2023-06-10T11:16:41;95982.34;;;24.08;51.74
45345;BME280;31078;48.304;11.896;2023-06-10T11:19:08;95984.13;;;24.26;50.91
45345;BME280;31078;48.304;11.896;2023-06-10T11:21:57;95990.19;;;24.51;49.86
45345;BME280;31078;48.304;11.896;2023-06-10T11:24:24;95989.16;;;24.68;49.76
45345;BME280;31078;48.304;11.896;2023-06-10T11:26:51;95978.44;;;24.94;51.47
45345;BME280;31078;48.304;11.896;2023-06-10T11:29:19;95979.00;;;25.12;49.05
45345;BME280;31078;48.304;11.896;2023-06-10T11:31:49;95984.94;;;25.14;49.30
45345;BME280;31078;48.304;11.896;2023-06-10T11:34:22;95974.22;;;24.86;48.49
45345;BME280;31078;48.304;11.896;2023-06-10T11:36:51;95994.03;;;24.27;48.70
45345;BME280;31078;48.304;11.896;2023-06-10T11:39:19;95989.91;;;24.08;48.73
45345;BME280;31078;48.304;11.896;2023-06-10T11:41:46;95986.63;;;23.79;49.73
45345;BME280;31078;48.304;11.896;2023-06-10T11:44:13;95994.78;;;23.55;50.58
45345;BME280;31078;48.304;11.896;2023-06-10T11:46:41;95996.94;;;23.37;52.39
45345;BME280;31078;48.304;11.896;2023-06-10T11:49:08;95995.38;;;23.32;52.29
45345;BME280;31078;48.304;11.896;2023-06-10T11:51:36;95993.97;;;23.13;52.41
45345;BME280;31078;48.304;11.896;2023-06-10T11:54:04;95991.19;;;23.13;53.41
45345;BME280;31078;48.304;11.896;2023-06-10T11:56:32;96000.47;;;22.89;53.21
45345;BME280;31078;48.304;11.896;2023-06-10T11:58:59;95991.03;;;22.72;54.85
45345;BME280;31078;48.304;11.896;2023-06-10T12:01:30;96003.00;;;22.58;55.10
45345;BME280;31078;48.304;11.896;2023-06-10T12:03:59;95993.69;;;22.17;55.88
45345;BME280;31078;48.304;11.896;2023-06-10T12:06:26;95996.81;;;22.26;55.99
45345;BME280;31078;48.304;11.896;2023-06-10T12:08:53;95996.00;;;22.36;56.97
45345;BME280;31078;48.304;11.896;2023-06-10T12:11:20;95995.69;;;22.12;56.73
45345;BME280;31078;48.304;11.896;2023-06-10T12:13:47;95990.13;;;22.16;58.10
45345;BME280;31078;48.304;11.896;2023-06-10T12:16:15;95990.56;;;21.97;57.88
45345;BME280;31078;48.304;11.896;2023-06-10T12:18:43;95984.63;;;21.98;58.30
45345;BME280;31078;48.304;11.896;2023-06-10T12:21:23;95984.19;;;22.14;57.89
45345;BME280;31078;48.304;11.896;2023-06-10T12:24:04;95981.00;;;22.16;58.42
45345;BME280;31078;48.304;11.896;2023-06-10T12:26:39;95977.06;;;22.09;57.59
45345;BME280;31078;48.304;11.896;2023-06-10T12:29:19;95981.81;;;22.16;56.43
45345;BME280;31078;48.304;11.896;2023-06-10T12:32:00;95982.22;;;22.14;56.43
45345;BME280;31078;48.304;11.896;2023-06-10T12:34:32;95973.06;;;22.21;56.57
45345;BME280;31078;48.304;11.896;2023-06-10T12:37:01;95970.63;;;22.37;56.28
45345;BME280;31078;48.304;11.896;2023-06-10T12:39:28;95967.41;;;22.46;55.25
45345;BME280;31078;48.304;11.896;2023-06-10T12:41:54;95968.56;;;22.49;54.28
45345;BME280;31078;48.304;11.896;2023-06-10T12:44:31;95969.81;;;22.40;54.80
45345;BME280;31078;48.304;11.896;2023-06-10T12:46:58;95969.69;;;22.58;54.34
45345;BME280;31078;48.304;11.896;2023-06-10T12:49:25;95971.25;;;22.66;53.61
45345;BME280;31078;48.304;11.896;2023-06-10T12:51:52;95965.69;;;22.66;54.41
45345;BME280;31078;48.304;11.896;2023-06-10T12:54:20;95962.81;;;22.81;54.24